createdAt,value
2023-02-22T00:01:19.366Z,3.95
2023-02-22T00:03:25.156Z,5.80
2023-02-22T00:05:28.565Z,3.10
2023-02-22T00:07:30.191Z,6.32
2023-02-22T00:09:31.811Z,4.18
2023-02-22T00:11:35.560Z,3.95
2023-02-22T00:13:38.455Z,4.30
2023-02-22T00:15:44.645Z,3.70
2023-02-22T00:17:46.586Z,4.35
2023-02-22T00:19:49.289Z,6.97
2023-02-22T00:21:54.273Z,3.97
2023-02-22T00:23:56.708Z,4.50
2023-02-22T00:26:00.021Z,4.22
2023-02-22T00:28:02.448Z,5.22
2023-02-22T00:30:06.207Z,5.43
2023-02-22T00:32:07.861Z,6.80
2023-02-22T00:34:09.495Z,6.07
2023-02-22T00:36:12.883Z,6.32
2023-02-22T00:38:17.221Z,5.65
2023-02-22T00:40:23.309Z,5.35
2023-02-22T00:42:24.958Z,4.32
2023-02-22T00:44:27.501Z,5.78
2023-02-22T00:46:29.133Z,8.55
2023-02-22T00:48:31.041Z,8.23
2023-02-22T00:50:32.908Z,7.30
2023-02-22T00:52:36.098Z,8.30
2023-02-22T00:54:37.813Z,8.32
2023-02-22T00:56:39.419Z,10.32
2023-02-22T00:58:41.007Z,9.20
2023-02-22T01:00:43.278Z,7.80
2023-02-22T01:02:45.104Z,8.95
2023-02-22T01:04:46.855Z,7.90
2023-02-22T01:06:48.557Z,6.82
2023-02-22T01:08:50.163Z,4.95
2023-02-22T01:10:52.682Z,6.03
2023-02-22T01:12:54.541Z,5.22
2023-02-22T01:14:59.245Z,5.35
2023-02-22T01:17:00.889Z,3.97
2023-02-22T01:19:02.586Z,3.55
2023-02-22T01:21:05.169Z,3.53
2023-02-22T01:23:08.128Z,3.78
2023-02-22T01:25:11.847Z,3.58
2023-02-22T01:27:14.491Z,3.53
2023-02-22T01:29:17.585Z,5.32
2023-02-22T01:31:19.587Z,4.15
2023-02-22T01:33:21.761Z,3.58
2023-02-22T01:35:29.448Z,3.17
2023-02-22T01:37:35.455Z,3.17
2023-02-22T01:39:37.134Z,3.05
2023-02-22T01:41:41.516Z,4.13
2023-02-22T01:43:43.097Z,5.18
2023-02-22T01:45:49.468Z,4.20
2023-02-22T01:47:51.254Z,4.82
2023-02-22T01:49:53.290Z,7.88
2023-02-22T01:51:56.733Z,4.50
2023-02-22T01:54:04.592Z,4.22
2023-02-22T01:56:06.806Z,3.42
2023-02-22T01:58:08.910Z,3.65
2023-02-22T02:00:14.881Z,3.53
2023-02-22T02:02:16.588Z,4.18
2023-02-22T02:04:25.552Z,2.88
2023-02-22T02:06:29.011Z,3.20
2023-02-22T02:09:21.323Z,3.28
2023-02-22T02:11:25.689Z,4.35
2023-02-22T02:13:27.691Z,3.78
2023-02-22T02:15:33.367Z,2.83
2023-02-22T02:17:37.149Z,4.57
2023-02-22T02:19:41.967Z,3.38
2023-02-22T02:21:54.427Z,3.53
2023-02-22T02:24:33.542Z,3.47
2023-02-22T02:27:12.487Z,4.93
2023-02-22T02:29:38.418Z,2.88
2023-02-22T02:31:58.875Z,5.18
2023-02-22T02:34:07.072Z,2.90
2023-02-22T02:36:16.664Z,3.08
2023-02-22T02:38:58.562Z,3.10
2023-02-22T02:41:08.627Z,3.47
2023-02-22T02:43:33.880Z,3.55
2023-02-22T02:45:59.167Z,3.13
2023-02-22T02:48:02.673Z,6.32
2023-02-22T02:50:13.455Z,4.13
2023-02-22T02:52:16.992Z,4.97
2023-02-22T02:54:19.084Z,3.30
2023-02-22T02:56:20.811Z,2.67
2023-02-22T02:58:23.795Z,3.00
2023-02-22T03:00:29.129Z,3.80
2023-02-22T03:02:45.915Z,5.03
2023-02-22T03:05:11.604Z,3.85
2023-02-22T03:07:31.606Z,3.35
2023-02-22T03:10:02.250Z,2.80
2023-02-22T03:12:21.971Z,4.53
2023-02-22T03:14:33.323Z,3.22
2023-02-22T03:16:45.863Z,4.07
2023-02-22T03:18:51.896Z,3.50
2023-02-22T03:21:01.429Z,3.70
2023-02-22T03:23:40.805Z,3.40
2023-02-22T03:25:50.643Z,3.72
2023-02-22T03:27:55.875Z,3.50
2023-02-22T03:30:01.115Z,5.22
2023-02-22T03:32:06.052Z,5.00
2023-02-22T03:34:15.964Z,3.75
2023-02-22T03:36:25.058Z,3.88
2023-02-22T03:38:28.946Z,3.95
2023-02-22T03:40:36.891Z,2.88
2023-02-22T03:42:38.757Z,4.32
2023-02-22T03:44:41.673Z,4.10
2023-02-22T03:46:46.873Z,3.72
2023-02-22T03:48:54.970Z,3.20
2023-02-22T03:50:58.513Z,3.75
2023-02-22T03:53:00.467Z,3.92
2023-02-22T03:55:03.058Z,4.00
2023-02-22T03:57:08.770Z,4.43
2023-02-22T03:59:11.100Z,4.50
2023-02-22T04:01:13.300Z,4.45
2023-02-22T04:03:14.940Z,3.58
2023-02-22T04:05:17.193Z,4.10
2023-02-22T04:07:19.773Z,3.88
2023-02-22T04:09:21.524Z,3.67
2023-02-22T04:11:23.642Z,4.40
2023-02-22T04:13:25.297Z,4.15
2023-02-22T04:15:27.182Z,4.05
2023-02-22T04:17:28.804Z,4.78
2023-02-22T04:19:30.376Z,10.02
2023-02-22T04:21:32.260Z,3.80
2023-02-22T04:23:33.834Z,4.30
2023-02-22T04:25:35.540Z,3.65
2023-02-22T04:27:37.214Z,7.03
2023-02-22T04:29:38.858Z,4.63
2023-02-22T04:31:40.590Z,7.22
2023-02-22T04:33:42.678Z,4.05
2023-02-22T04:35:44.412Z,4.32
2023-02-22T04:37:46.048Z,4.30
2023-02-22T04:39:50.759Z,4.75
2023-02-22T04:41:52.410Z,5.28
2023-02-22T04:43:54.055Z,7.13
2023-02-22T04:45:55.690Z,5.05
2023-02-22T04:47:57.418Z,4.45
2023-02-22T04:50:00.471Z,4.50
2023-02-22T04:52:02.075Z,4.72
2023-02-22T04:54:03.978Z,4.13
2023-02-22T04:56:06.494Z,4.25
2023-02-22T04:58:09.503Z,3.85
2023-02-22T05:00:11.729Z,4.10
2023-02-22T05:02:13.618Z,5.07
2023-02-22T05:04:15.281Z,5.57
2023-02-22T05:06:18.176Z,5.47
2023-02-22T05:08:19.766Z,3.47
2023-02-22T05:10:21.651Z,4.38
2023-02-22T05:12:23.382Z,6.63
2023-02-22T05:14:28.063Z,11.73
2023-02-22T05:16:29.752Z,4.38
2023-02-22T05:18:31.412Z,4.10
2023-02-22T05:20:35.011Z,5.38
2023-02-22T05:22:36.640Z,3.80
2023-02-22T05:24:38.620Z,5.85
2023-02-22T05:26:40.514Z,5.65
2023-02-22T05:28:42.245Z,5.82
2023-02-22T05:30:44.074Z,4.22
2023-02-22T05:32:47.132Z,6.03
2023-02-22T05:34:49.177Z,4.28
2023-02-22T05:36:51.006Z,3.80
2023-02-22T05:38:52.597Z,4.82
2023-02-22T05:40:54.469Z,7.85
2023-02-22T05:42:57.001Z,4.25
2023-02-22T05:45:00.043Z,5.50
2023-02-22T05:47:01.642Z,3.83
2023-02-22T05:49:03.451Z,2.85
2023-02-22T05:51:05.367Z,4.22
2023-02-22T05:53:06.975Z,3.22
2023-02-22T05:55:10.492Z,3.83
2023-02-22T05:57:12.171Z,2.60
2023-02-22T05:59:13.784Z,5.78
2023-02-22T06:01:15.692Z,3.72
2023-02-22T06:03:17.430Z,3.50
2023-02-22T06:05:19.553Z,5.18
2023-02-22T06:07:21.266Z,5.13
2023-02-22T06:09:22.900Z,5.28
2023-02-22T06:11:24.637Z,7.07
2023-02-22T06:13:26.307Z,3.30
2023-02-22T06:15:29.183Z,4.45
2023-02-22T06:17:30.841Z,4.47
2023-02-22T06:19:32.475Z,5.07
2023-02-22T06:21:34.242Z,4.30
2023-02-22T06:23:35.865Z,4.10
2023-02-22T06:25:37.561Z,10.23
2023-02-22T06:27:39.227Z,2.80
2023-02-22T06:29:45.174Z,4.95
2023-02-22T06:31:46.934Z,6.63
2023-02-22T06:33:48.691Z,3.58
2023-02-22T06:35:50.926Z,5.60
2023-02-22T06:37:52.876Z,3.55
2023-02-22T06:39:54.826Z,6.90
2023-02-22T06:41:57.985Z,3.72
2023-02-22T06:43:59.643Z,11.02
2023-02-22T06:46:10.431Z,3.85
2023-02-22T06:48:12.386Z,7.20
2023-02-22T06:50:24.894Z,4.65
2023-02-22T06:52:27.183Z,4.97
2023-02-22T06:54:30.323Z,11.32
2023-02-22T06:56:32.121Z,4.13
2023-02-22T06:58:33.728Z,4.13
2023-02-22T07:00:36.054Z,6.88
2023-02-22T07:02:38.486Z,5.25
2023-02-22T07:04:43.255Z,6.47
2023-02-22T07:06:47.189Z,4.85
2023-02-22T07:08:57.990Z,5.18
2023-02-22T07:11:00.263Z,7.57
2023-02-22T07:13:02.606Z,6.70
2023-02-22T07:15:04.511Z,6.88
2023-02-22T07:17:08.017Z,8.20
2023-02-22T07:19:12.675Z,6.43
2023-02-22T07:21:15.041Z,6.85
2023-02-22T07:23:17.419Z,11.27
2023-02-22T07:25:19.635Z,11.40
2023-02-22T07:27:22.630Z,10.63
2023-02-22T07:29:24.248Z,10.63
2023-02-22T07:31:26.685Z,7.93
2023-02-22T07:33:29.444Z,8.15
2023-02-22T07:35:33.544Z,5.75
2023-02-22T07:37:42.375Z,6.35
2023-02-22T07:39:44.440Z,6.13
2023-02-22T07:41:46.329Z,6.22
2023-02-22T07:43:50.796Z,5.63
2023-02-22T07:46:08.480Z,6.65
2023-02-22T07:48:10.561Z,5.53
2023-02-22T07:50:14.477Z,5.88
2023-02-22T07:52:17.825Z,5.93
2023-02-22T07:54:26.580Z,6.05
2023-02-22T07:56:28.473Z,6.80
2023-02-22T07:58:32.061Z,6.70
2023-02-22T08:00:39.401Z,7.78
2023-02-22T08:02:48.691Z,10.48
2023-02-22T08:04:55.012Z,9.48
2023-02-22T08:06:56.683Z,7.45
2023-02-22T08:09:00.096Z,7.55
2023-02-22T08:11:17.796Z,6.78
2023-02-22T08:13:19.951Z,6.68
2023-02-22T08:15:31.520Z,4.47
2023-02-22T08:17:33.453Z,3.70
2023-02-22T08:19:40.448Z,4.53
2023-02-22T08:21:42.402Z,3.05
2023-02-22T08:23:44.059Z,7.50
2023-02-22T08:25:45.907Z,3.42
2023-02-22T08:28:01.860Z,3.50
2023-02-22T08:30:04.749Z,3.65
2023-02-22T08:32:06.797Z,3.53
2023-02-22T08:34:08.607Z,4.18
2023-02-22T08:36:10.502Z,4.68
2023-02-22T08:38:34.996Z,3.78
2023-02-22T08:40:39.898Z,7.03
2023-02-22T08:42:41.597Z,4.63
2023-02-22T08:44:52.470Z,10.95
2023-02-22T08:46:55.234Z,3.78
2023-02-22T08:48:56.986Z,5.25
2023-02-22T08:50:58.853Z,7.57
2023-02-22T08:53:02.303Z,3.95
2023-02-22T08:55:05.620Z,5.35
2023-02-22T08:57:07.852Z,8.38
2023-02-22T08:59:10.038Z,5.05
2023-02-22T09:01:12.916Z,6.40
2023-02-22T09:03:15.830Z,4.57
2023-02-22T09:05:17.694Z,5.97
2023-02-22T09:07:19.425Z,4.40
2023-02-22T09:09:21.525Z,5.85
2023-02-22T09:11:23.180Z,4.20
2023-02-22T09:13:24.779Z,4.90
2023-02-22T09:15:26.852Z,8.55
2023-02-22T09:17:28.501Z,5.93
2023-02-22T09:19:30.203Z,4.85
2023-02-22T09:21:31.906Z,4.20
2023-02-22T09:23:34.720Z,8.38
2023-02-22T09:25:41.001Z,4.57
2023-02-22T09:27:44.258Z,3.78
2023-02-22T09:29:48.400Z,6.28
2023-02-22T09:31:51.990Z,5.35
2023-02-22T09:33:58.707Z,6.38
2023-02-22T09:36:02.097Z,4.07
2023-02-22T09:38:06.675Z,4.50
2023-02-22T09:40:10.454Z,4.57
2023-02-22T09:42:31.452Z,5.03
2023-02-22T09:44:58.843Z,4.75
2023-02-22T09:47:00.743Z,4.75
2023-02-22T09:49:02.729Z,4.63
2023-02-22T09:51:11.723Z,5.88
2023-02-22T09:53:30.225Z,7.47
2023-02-22T09:55:57.628Z,7.28
2023-02-22T09:58:43.649Z,5.35
2023-02-22T10:00:51.846Z,4.57
2023-02-22T10:03:23.098Z,6.97
2023-02-22T10:05:33.930Z,7.45
2023-02-22T10:07:49.395Z,12.20
2023-02-22T10:09:52.073Z,6.15
2023-02-22T10:12:16.443Z,6.05
2023-02-22T10:14:51.978Z,6.30
2023-02-22T10:17:22.613Z,6.43
2023-02-22T10:19:43.503Z,6.90
2023-02-22T10:21:45.220Z,24.60
2023-02-22T10:24:00.159Z,10.38
2023-02-22T10:26:14.050Z,13.70
2023-02-22T10:28:20.247Z,9.65
2023-02-22T10:30:34.141Z,9.77
2023-02-22T10:32:54.790Z,6.20
2023-02-22T10:34:58.773Z,7.40
2023-02-22T10:37:26.809Z,10.75
2023-02-22T10:39:31.652Z,9.15
2023-02-22T10:41:35.185Z,6.95
2023-02-22T10:43:43.801Z,10.13
2023-02-22T10:45:45.625Z,9.50
2023-02-22T10:47:52.718Z,10.50
2023-02-22T10:49:57.483Z,9.95
2023-02-22T10:52:07.580Z,9.02
2023-02-22T10:54:15.586Z,16.17
2023-02-22T10:56:22.996Z,8.90
2023-02-22T10:58:24.701Z,12.13
2023-02-22T11:00:33.375Z,9.63
2023-02-22T11:02:36.250Z,11.55
2023-02-22T11:04:55.893Z,10.32
2023-02-22T11:06:57.842Z,9.50
2023-02-22T11:09:14.336Z,8.15
2023-02-22T11:11:29.010Z,10.77
2023-02-22T11:13:40.019Z,14.02
2023-02-22T11:15:42.203Z,27.15
2023-02-22T11:17:46.446Z,9.65
2023-02-22T11:19:49.452Z,9.27
2023-02-22T11:22:17.248Z,11.80
2023-02-22T11:24:34.593Z,9.00
2023-02-22T11:26:58.618Z,13.40
2023-02-22T11:29:20.289Z,9.57
2023-02-22T11:31:25.503Z,14.15
2023-02-22T11:33:31.318Z,10.57
2023-02-22T11:35:37.223Z,10.75
2023-02-22T11:37:39.516Z,15.07
2023-02-22T11:39:43.983Z,9.65
2023-02-22T11:41:45.672Z,13.57
2023-02-22T11:43:50.078Z,10.35
2023-02-22T11:46:05.836Z,15.88
2023-02-22T11:48:08.279Z,12.32
2023-02-22T11:50:22.381Z,10.70
2023-02-22T11:52:35.680Z,10.95
2023-02-22T11:54:53.190Z,12.65
2023-02-22T11:57:27.954Z,10.57
2023-02-22T11:59:51.554Z,10.63
2023-02-22T12:02:06.453Z,10.63
2023-02-22T12:04:50.273Z,12.40
2023-02-22T12:07:21.825Z,14.15
2023-02-22T12:09:44.543Z,11.95
2023-02-22T12:12:25.725Z,14.18
2023-02-22T12:15:01.428Z,12.20
2023-02-22T12:17:23.558Z,11.93
2023-02-22T12:20:01.849Z,18.02
2023-02-22T12:22:09.065Z,11.70
2023-02-22T12:24:26.140Z,11.65
2023-02-22T12:26:58.937Z,11.30
2023-02-22T12:29:15.072Z,11.88
2023-02-22T12:31:35.409Z,12.98
2023-02-22T12:33:55.795Z,11.27
2023-02-22T12:35:59.771Z,12.32
2023-02-22T12:38:37.349Z,12.77
2023-02-22T12:40:47.431Z,12.15
2023-02-22T12:43:06.474Z,11.48
2023-02-22T12:45:17.133Z,12.10
2023-02-22T12:47:25.871Z,12.20
2023-02-22T12:49:42.694Z,13.88
2023-02-22T12:51:52.370Z,11.40
2023-02-22T12:54:26.545Z,12.77
2023-02-22T12:56:28.391Z,11.40
2023-02-22T12:58:35.382Z,12.13
2023-02-22T13:01:07.134Z,17.13
2023-02-22T13:03:26.609Z,12.27
2023-02-22T13:05:32.883Z,17.13
2023-02-22T13:07:54.903Z,14.40
2023-02-22T13:09:59.753Z,11.50
2023-02-22T13:12:04.253Z,14.98
2023-02-22T13:14:30.288Z,11.07
2023-02-22T13:16:52.822Z,12.85
2023-02-22T13:19:13.048Z,13.13
2023-02-22T13:21:44.327Z,13.05
2023-02-22T13:24:03.627Z,11.40
2023-02-22T13:26:20.048Z,13.70
2023-02-22T13:28:44.009Z,15.20
2023-02-22T13:31:03.562Z,13.32
2023-02-22T13:33:42.361Z,11.88
2023-02-22T13:35:55.960Z,12.98
2023-02-22T13:38:20.856Z,10.63
2023-02-22T13:40:47.944Z,11.50
2023-02-22T13:42:58.410Z,11.35
2023-02-22T13:45:27.734Z,13.73
2023-02-22T13:47:45.585Z,13.27
2023-02-22T13:50:26.141Z,11.00
2023-02-22T13:52:30.444Z,10.50
2023-02-22T13:54:38.351Z,11.45
2023-02-22T13:56:44.531Z,11.45
2023-02-22T13:58:55.259Z,10.88
2023-02-22T14:01:00.745Z,9.27
2023-02-22T14:03:09.006Z,10.07
2023-02-22T14:05:42.464Z,12.13
2023-02-22T14:07:49.888Z,9.63
2023-02-22T14:09:56.226Z,10.65
2023-02-22T14:11:58.030Z,11.65
2023-02-22T14:14:01.087Z,16.45
2023-02-22T14:16:08.484Z,9.70
2023-02-22T14:18:16.466Z,12.68
2023-02-22T14:20:21.543Z,10.13
2023-02-22T14:22:28.480Z,9.70
2023-02-22T14:24:44.199Z,10.95
2023-02-22T14:27:15.285Z,14.93
2023-02-22T14:29:18.476Z,12.07
2023-02-22T14:31:35.349Z,13.95
2023-02-22T14:33:58.634Z,11.68
2023-02-22T14:36:00.419Z,14.13
2023-02-22T14:38:02.676Z,15.00
2023-02-22T14:40:18.583Z,16.20
2023-02-22T14:42:30.265Z,12.25
2023-02-22T14:44:44.975Z,11.60
2023-02-22T14:46:50.155Z,16.58
2023-02-22T14:48:59.423Z,12.85
2023-02-22T14:51:19.116Z,11.52
2023-02-22T14:53:38.378Z,11.85
2023-02-22T14:56:02.731Z,14.68
2023-02-22T14:58:19.324Z,11.40
2023-02-22T15:00:31.142Z,11.52
2023-02-22T15:02:38.986Z,16.33
2023-02-22T15:04:44.130Z,10.77
2023-02-22T15:06:46.967Z,10.60
2023-02-22T15:08:50.039Z,18.90
2023-02-22T15:10:54.384Z,12.23
2023-02-22T15:13:11.435Z,12.57
2023-02-22T15:15:21.975Z,12.73
2023-02-22T15:17:27.077Z,12.57
2023-02-22T15:19:31.460Z,12.00
2023-02-22T15:21:34.588Z,15.23
2023-02-22T15:23:52.266Z,12.52
2023-02-22T15:25:54.176Z,12.48
2023-02-22T15:28:01.214Z,13.40
2023-02-22T15:30:09.749Z,14.82
2023-02-22T15:32:33.402Z,16.00
2023-02-22T15:34:35.017Z,13.25
2023-02-22T15:36:36.707Z,14.85
2023-02-22T15:38:40.244Z,12.45
2023-02-22T15:40:46.211Z,17.90
2023-02-22T15:42:58.409Z,29.02
2023-02-22T15:45:00.085Z,14.48
2023-02-22T15:47:01.869Z,13.80
2023-02-22T15:49:17.922Z,16.02
2023-02-22T15:51:20.832Z,13.60
2023-02-22T15:53:37.612Z,15.43
2023-02-22T15:55:44.034Z,18.55
2023-02-22T15:57:45.918Z,14.50
2023-02-22T15:59:53.078Z,16.38
2023-02-22T16:01:55.086Z,14.63
2023-02-22T16:03:58.690Z,16.65
2023-02-22T16:06:00.505Z,16.70
2023-02-22T16:08:02.197Z,20.70
2023-02-22T16:10:09.258Z,18.83
2023-02-22T16:12:31.306Z,20.05
2023-02-22T16:14:35.970Z,21.20
2023-02-22T16:16:41.801Z,20.40
2023-02-22T16:18:43.767Z,19.77
2023-02-22T16:20:45.429Z,19.95
2023-02-22T16:22:51.533Z,19.92
2023-02-22T16:24:54.616Z,21.25
2023-02-22T16:27:13.030Z,21.75
2023-02-22T16:29:26.157Z,19.00
2023-02-22T16:31:35.818Z,21.77
2023-02-22T16:33:39.994Z,20.70
2023-02-22T16:35:52.020Z,20.52
2023-02-22T16:38:02.254Z,19.58
2023-02-22T16:40:04.883Z,20.13
2023-02-22T16:42:09.866Z,20.70
2023-02-22T16:44:13.042Z,19.70
2023-02-22T16:46:15.042Z,21.00
2023-02-22T16:48:26.285Z,23.13
2023-02-22T16:50:27.877Z,24.02
2023-02-22T16:52:29.540Z,31.75
2023-02-22T16:54:36.624Z,24.85
2023-02-22T16:56:40.652Z,27.67
2023-02-22T16:58:44.462Z,25.10
2023-02-22T17:00:46.237Z,24.55
2023-02-22T17:02:48.485Z,23.60
2023-02-22T17:04:50.058Z,24.33
2023-02-22T17:06:52.914Z,23.45
2023-02-22T17:08:54.544Z,24.05
2023-02-22T17:10:58.284Z,26.60
2023-02-22T17:13:07.234Z,22.30
2023-02-22T17:15:21.736Z,24.95
2023-02-22T17:17:23.793Z,20.95
2023-02-22T17:19:25.755Z,23.40
2023-02-22T17:21:27.734Z,23.77
2023-02-22T17:23:29.468Z,26.20
2023-02-22T17:25:34.782Z,22.05
2023-02-22T17:27:36.368Z,25.33
2023-02-22T17:29:37.999Z,31.30
2023-02-22T17:31:39.770Z,20.40
2023-02-22T17:33:43.803Z,22.83
2023-02-22T17:35:47.074Z,32.83
2023-02-22T17:37:50.138Z,23.85
2023-02-22T17:39:51.788Z,25.52
2023-02-22T17:41:57.760Z,28.05
2023-02-22T17:43:59.483Z,25.20
2023-02-22T17:46:07.927Z,26.33
2023-02-22T17:48:09.774Z,25.38
2023-02-22T17:50:11.827Z,23.80
2023-02-22T17:52:15.990Z,28.50
2023-02-22T17:54:17.944Z,24.88
2023-02-22T17:56:20.354Z,24.42
2023-02-22T17:58:23.685Z,25.35
2023-02-22T18:00:33.136Z,25.45
2023-02-22T18:02:34.919Z,34.33
2023-02-22T18:04:36.894Z,26.73
2023-02-22T18:06:40.101Z,27.35
2023-02-22T18:08:41.743Z,30.42
2023-02-22T18:10:44.005Z,27.73
2023-02-22T18:12:45.730Z,26.17
2023-02-22T18:14:47.387Z,31.33
2023-02-22T18:16:49.145Z,25.17
2023-02-22T18:18:50.743Z,26.10
2023-02-22T18:20:55.686Z,30.38
2023-02-22T18:22:58.776Z,27.25
2023-02-22T18:25:02.016Z,24.70
2023-02-22T18:27:06.065Z,24.95
2023-02-22T18:29:08.054Z,25.30
2023-02-22T18:31:14.751Z,32.63
2023-02-22T18:33:17.572Z,25.17
2023-02-22T18:35:19.201Z,24.48
2023-02-22T18:37:20.906Z,26.67
2023-02-22T18:39:22.671Z,26.05
2023-02-22T18:41:25.555Z,26.35
2023-02-22T18:43:28.087Z,24.63
2023-02-22T18:45:29.809Z,28.35
2023-02-22T18:47:33.041Z,36.10
2023-02-22T18:49:34.653Z,23.50
2023-02-22T18:51:36.315Z,26.45
2023-02-22T18:53:39.218Z,25.67
2023-02-22T18:55:40.884Z,26.70
2023-02-22T18:57:42.578Z,30.85
2023-02-22T18:59:44.324Z,26.52
2023-02-22T19:01:49.192Z,26.83
2023-02-22T19:03:51.939Z,23.60
2023-02-22T19:05:54.792Z,27.50
2023-02-22T19:07:56.384Z,22.80
2023-02-22T19:09:58.036Z,22.85
2023-02-22T19:11:59.697Z,26.10
2023-02-22T19:14:04.072Z,25.23
2023-02-22T19:16:07.438Z,24.65
2023-02-22T19:18:09.541Z,28.25
2023-02-22T19:20:11.269Z,22.48
2023-02-22T19:22:15.280Z,26.05
2023-02-22T19:24:20.730Z,23.48
2023-02-22T19:26:25.294Z,23.67
2023-02-22T19:28:33.973Z,27.42
2023-02-22T19:30:35.887Z,27.67
2023-02-22T19:32:38.045Z,41.20
2023-02-22T19:34:39.781Z,23.35
2023-02-22T19:36:45.901Z,24.83
2023-02-22T19:38:47.745Z,24.90
2023-02-22T19:40:49.409Z,26.52
2023-02-22T19:42:51.644Z,32.10
2023-02-22T19:44:53.837Z,26.92
2023-02-22T19:46:55.832Z,28.13
2023-02-22T19:48:58.006Z,28.92
2023-02-22T19:51:06.257Z,28.00
2023-02-22T19:53:13.999Z,27.08
2023-02-22T19:55:15.922Z,38.30
2023-02-22T19:57:17.667Z,28.70
2023-02-22T19:59:23.009Z,30.02
2023-02-22T20:01:29.967Z,27.60
2023-02-22T20:03:34.941Z,30.17
2023-02-22T20:05:40.761Z,38.80
2023-02-22T20:07:43.031Z,33.15
2023-02-22T20:09:44.720Z,34.47
2023-02-22T20:11:47.196Z,27.40
2023-02-22T20:13:48.998Z,32.70
2023-02-22T20:15:50.904Z,31.70
2023-02-22T20:17:52.585Z,26.67
2023-02-22T20:19:54.360Z,33.97
2023-02-22T20:21:56.564Z,30.63
2023-02-22T20:24:03.727Z,32.58
2023-02-22T20:26:05.506Z,29.70
2023-02-22T20:28:07.857Z,34.13
2023-02-22T20:30:10.594Z,26.90
2023-02-22T20:32:15.007Z,41.08
2023-02-22T20:34:16.850Z,31.38
2023-02-22T20:36:19.362Z,32.75
2023-02-22T20:38:21.063Z,28.30
2023-02-22T20:40:22.694Z,31.23
2023-02-22T20:42:24.400Z,26.63
2023-02-22T20:44:26.105Z,28.15
2023-02-22T20:46:31.482Z,27.70
2023-02-22T20:48:34.188Z,29.02
2023-02-22T20:50:35.877Z,27.08
2023-02-22T20:52:37.624Z,30.70
2023-02-22T20:54:39.245Z,24.05
2023-02-22T20:56:42.833Z,23.83
2023-02-22T20:58:45.127Z,25.17
2023-02-22T21:00:47.145Z,24.58
2023-02-22T21:02:48.881Z,22.95
2023-02-22T21:04:50.545Z,23.15
2023-02-22T21:06:52.425Z,24.80
2023-02-22T21:08:55.672Z,23.10
2023-02-22T21:10:58.194Z,22.92
2023-02-22T21:12:59.915Z,21.77
2023-02-22T21:15:01.675Z,22.63
2023-02-22T21:17:04.691Z,23.35
2023-02-22T21:19:07.508Z,28.27
2023-02-22T21:21:12.633Z,21.63
2023-02-22T21:23:15.835Z,20.75
2023-02-22T21:25:17.445Z,21.13
2023-02-22T21:27:19.089Z,22.05
2023-02-22T21:29:20.762Z,21.20
2023-02-22T21:31:24.740Z,20.50
2023-02-22T21:33:27.897Z,21.25
2023-02-22T21:35:30.652Z,21.27
2023-02-22T21:37:34.112Z,21.48
2023-02-22T21:39:35.811Z,19.45
2023-02-22T21:41:40.520Z,23.15
2023-02-22T21:43:43.415Z,21.20
2023-02-22T21:45:45.150Z,19.38
2023-02-22T21:47:47.718Z,19.45
2023-02-22T21:49:52.148Z,19.75
2023-02-22T21:51:53.911Z,20.73
2023-02-22T21:53:55.545Z,19.52
2023-02-22T21:56:03.404Z,20.65
2023-02-22T21:58:06.045Z,20.83
2023-02-22T22:00:17.056Z,19.83
2023-02-22T22:02:20.137Z,21.73
2023-02-22T22:04:29.107Z,21.30
2023-02-22T22:06:32.423Z,20.88
2023-02-22T22:08:35.291Z,21.95
2023-02-22T22:10:36.962Z,21.95
2023-02-22T22:12:42.004Z,20.42
2023-02-22T22:14:43.618Z,22.48
2023-02-22T22:16:49.313Z,22.70
2023-02-22T22:18:51.100Z,30.58
2023-02-22T22:20:52.734Z,23.05
2023-02-22T22:22:55.049Z,25.90
2023-02-22T22:24:56.672Z,30.45
2023-02-22T22:27:03.674Z,23.42
2023-02-22T22:29:05.899Z,23.05
2023-02-22T22:31:08.877Z,25.67
2023-02-22T22:33:11.514Z,23.33
2023-02-22T22:35:14.682Z,26.33
2023-02-22T22:37:16.848Z,26.20
2023-02-22T22:39:21.170Z,26.35
2023-02-22T22:41:23.728Z,38.65
2023-02-22T22:43:25.411Z,26.02
2023-02-22T22:45:27.093Z,31.30
2023-02-22T22:47:29.491Z,28.23
2023-02-22T22:49:32.643Z,37.15
2023-02-22T22:51:34.516Z,27.98
2023-02-22T22:53:37.925Z,29.15
2023-02-22T22:55:43.676Z,28.80
2023-02-22T22:57:45.348Z,30.00
2023-02-22T22:59:47.039Z,30.67
2023-02-22T23:01:48.901Z,27.25
2023-02-22T23:03:56.862Z,30.08
2023-02-22T23:06:02.312Z,25.30
2023-02-22T23:08:05.655Z,29.10
2023-02-22T23:10:12.719Z,28.42
2023-02-22T23:12:17.712Z,24.52
2023-02-22T23:14:26.561Z,27.60
2023-02-22T23:16:28.729Z,25.20
2023-02-22T23:18:34.010Z,25.40
2023-02-22T23:20:39.082Z,25.08
2023-02-22T23:22:43.695Z,26.25
2023-02-22T23:24:45.636Z,24.02
2023-02-22T23:26:51.683Z,25.88
2023-02-22T23:28:55.495Z,22.80
2023-02-22T23:31:03.345Z,23.08
2023-02-22T23:33:05.028Z,24.65
2023-02-22T23:35:07.343Z,23.60
2023-02-22T23:37:10.708Z,23.80
2023-02-22T23:39:14.451Z,23.65
2023-02-22T23:41:17.061Z,22.33
2023-02-22T23:43:20.093Z,22.15
2023-02-22T23:45:23.323Z,20.95
2023-02-22T23:47:25.091Z,23.52
2023-02-22T23:49:35.611Z,21.65
2023-02-22T23:51:44.607Z,22.75
2023-02-22T23:53:47.032Z,21.67
2023-02-22T23:55:49.214Z,24.00
2023-02-22T23:57:50.945Z,22.30
2023-02-22T23:59:52.545Z,21.98
